Ponemah, Minnesota
Current Conditions -  °F | °C
As of 10:34 AM on Thursday 30 Oct 2014 (Local Time) from KVWU Reporting Station
Overcast Overcast  
Wind Chill: 36°   Ceiling: 2200
Heat Index: 36°   Visibility: 10mi
Dew Point: 34°   Wind: 0mph
Humidity: 93%   Direction: NA
Pressure: 30.15"   Gusts: NA
Location:  48.01°N, 94.93°W
Report Text: KVWU 301534Z AUTO 00000KT 10SM BKN022 OVC026 02/01 A3015 RMK AO2
Loading
Personal Weather Stations






























Interactive Weather Map
Tropical Storm Tracking
New forecast layout! Learn more

10-Day Weather Forecast

Advertisements
Track Severe Weather on mobile